Time;durP1;ratioP1;P1;durP2;ratioP2;P2;SDS_P1;SDS_P2;PMS_P1;PMS_P2;Temp;Humidity;BMP_temperature;BMP_pressure;BME280_temperature;BME280_humidity;BME280_pressure;Samples;Min_cycle;Max_cycle;Signal;HPM_P1;HPM_P2
2022/12/25 00:01:39;;;;;;;0.20;0.13;;;16.60;68.60;;;;;;5013511;28;20058;-76
2022/12/25 00:04:04;;;;;;;0.22;0.20;;;16.70;68.70;;;;;;5012683;28;20489;-76
2022/12/25 00:06:30;;;;;;;0.20;0.20;;;16.60;68.60;;;;;;5013482;28;20508;-77
2022/12/25 00:08:55;;;;;;;0.65;0.30;;;16.60;68.70;;;;;;5032638;28;20383;-77
2022/12/25 00:11:21;;;;;;;0.20;0.20;;;16.60;68.60;;;;;;5031978;28;20060;-77
2022/12/25 00:13:47;;;;;;;0.10;0.10;;;16.70;68.70;;;;;;5032199;28;20387;-77
2022/12/25 00:16:18;;;;;;;0.20;0.13;;;16.60;68.60;;;;;;5017847;28;20026;-77
2022/12/25 00:18:44;;;;;;;0.20;0.10;;;16.60;68.60;;;;;;5012122;28;20077;-77
2022/12/25 00:21:10;;;;;;;0.85;0.30;;;16.60;68.70;;;;;;5013688;28;20448;-77
2022/12/25 00:23:35;;;;;;;0.75;0.30;;;16.60;68.70;;;;;;4995247;28;20443;-77
2022/12/25 00:26:06;;;;;;;0.20;0.20;;;16.60;68.70;;;;;;5012205;28;20025;-77
2022/12/25 00:28:31;;;;;;;0.30;0.20;;;16.60;68.70;;;;;;5012272;28;20026;-77
2022/12/25 00:30:57;;;;;;;0.30;0.20;;;16.60;68.70;;;;;;5012046;28;20034;-77
2022/12/25 00:33:23;;;;;;;0.20;0.17;;;16.60;68.70;;;;;;5013299;28;20105;-76
2022/12/25 00:35:59;;;;;;;0.90;0.30;;;16.60;68.70;;;;;;5011874;28;20440;-77
2022/12/25 00:38:25;;;;;;;0.38;0.20;;;16.60;68.80;;;;;;5011782;28;20424;-77
2022/12/25 00:40:51;;;;;;;0.73;0.20;;;16.60;68.70;;;;;;5011879;28;20116;-77
2022/12/25 00:43:17;;;;;;;0.20;0.20;;;16.50;68.70;;;;;;5011969;28;20109;-77
2022/12/25 00:45:43;;;;;;;0.55;0.20;;;16.50;68.70;;;;;;5011821;28;20101;-77
2022/12/25 00:48:08;;;;;;;0.30;0.20;;;16.50;68.70;;;;;;5013081;28;20538;-77
2022/12/25 00:50:38;;;;;;;0.68;0.20;;;16.50;68.70;;;;;;5011769;28;20037;-77
2022/12/25 00:53:04;;;;;;;0.20;0.20;;;16.50;68.80;;;;;;5011537;28;20057;-77
2022/12/25 00:55:30;;;;;;;0.30;0.20;;;16.50;68.80;;;;;;5011640;28;20076;-77
2022/12/25 00:57:55;;;;;;;0.20;0.13;;;16.50;68.80;;;;;;5011746;28;20058;-77
2022/12/25 01:00:21;;;;;;;0.43;0.20;;;16.50;68.80;;;;;;5011549;28;20092;-77
2022/12/25 01:02:47;;;;;;;0.20;0.20;;;16.50;68.80;;;;;;5011354;28;20033;-77
2022/12/25 01:05:13;;;;;;;1.00;0.20;;;16.50;68.80;;;;;;5011240;28;20109;-77
2022/12/25 01:07:38;;;;;;;0.15;0.15;;;16.50;68.80;;;;;;5020602;28;20438;-77
2022/12/25 01:10:23;;;;;;;0.28;0.20;;;16.50;68.80;;;;;;5031059;28;20084;-77
2022/12/25 01:12:49;;;;;;;0.17;0.15;;;16.50;68.80;;;;;;5017026;28;20108;-77
2022/12/25 01:15:15;;;;;;;0.20;0.10;;;16.50;68.80;;;;;;5024988;28;20041;-77
2022/12/25 01:17:41;;;;;;;0.93;0.30;;;16.50;68.90;;;;;;5012439;28;20389;-77
2022/12/25 01:20:07;;;;;;;0.55;0.10;;;16.40;68.80;;;;;;5011547;28;20105;-77
2022/12/25 01:22:33;;;;;;;0.77;0.20;;;16.40;68.90;;;;;;5011374;28;20622;-76
2022/12/25 01:24:58;;;;;;;0.30;0.20;;;16.40;68.90;;;;;;5012577;28;20105;-77
2022/12/25 01:27:24;;;;;;;1.25;0.35;;;16.40;68.90;;;;;;5012627;28;20060;-77
2022/12/25 01:29:50;;;;;;;0.30;0.20;;;16.40;68.90;;;;;;5011323;28;20092;-77
2022/12/25 01:32:15;;;;;;;0.65;0.25;;;16.40;68.90;;;;;;5012443;28;20133;-77
2022/12/25 01:34:41;;;;;;;0.20;0.20;;;16.40;68.90;;;;;;5012463;28;20034;-77
2022/12/25 01:37:07;;;;;;;0.28;0.20;;;16.40;68.90;;;;;;5011096;28;20030;-77
2022/12/25 01:39:32;;;;;;;0.52;0.20;;;16.40;69.80;;;;;;5011101;28;20025;-77
2022/12/25 01:41:58;;;;;;;0.17;0.17;;;16.40;68.90;;;;;;5011187;28;20022;-77
2022/12/25 01:44:36;;;;;;;0.38;0.20;;;16.40;68.90;;;;;;5011358;28;20068;-77
2022/12/25 01:47:05;;;;;;;0.43;0.30;;;16.40;68.90;;;;;;5012327;28;20045;-77
2022/12/25 01:49:31;;;;;;;0.22;0.20;;;16.40;68.90;;;;;;4994801;28;20025;-76
2022/12/25 01:52:12;;;;;;;0.57;0.20;;;16.30;68.90;;;;;;5011039;28;20041;-77
2022/12/25 01:54:45;;;;;;;0.25;0.20;;;16.40;68.90;;;;;;5011090;28;20022;-77
2022/12/25 01:57:15;;;;;;;0.70;0.20;;;16.40;69.00;;;;;;5011150;28;20038;-77
2022/12/25 01:59:41;;;;;;;0.10;0.10;;;16.40;69.00;;;;;;5010991;28;20474;-77
2022/12/25 02:02:07;;;;;;;0.30;0.20;;;16.40;69.00;;;;;;4994386;28;20126;-77
2022/12/25 02:04:39;;;;;;;0.30;0.17;;;16.30;69.00;;;;;;5011131;28;20028;-77
2022/12/25 02:07:09;;;;;;;0.40;0.30;;;16.30;69.00;;;;;;5014411;28;20086;-77
2022/12/25 02:09:35;;;;;;;1.17;0.20;;;16.30;68.90;;;;;;5030713;28;20068;-77
2022/12/25 02:12:00;;;;;;;0.28;0.10;;;16.30;69.00;;;;;;5030589;28;20091;-77
2022/12/25 02:14:28;;;;;;;0.20;0.20;;;16.30;69.00;;;;;;5030818;28;20491;-76
2022/12/25 02:17:06;;;;;;;0.10;0.10;;;16.30;69.00;;;;;;5012390;28;20069;-76
2022/12/25 02:19:55;;;;;;;0.30;0.20;;;16.30;69.00;;;;;;5014633;28;20049;-77
2022/12/25 02:22:32;;;;;;;0.10;0.10;;;16.30;69.00;;;;;;5014517;28;20034;-77
2022/12/25 02:25:16;;;;;;;1.13;0.20;;;16.30;69.00;;;;;;5014310;28;20026;-76
2022/12/25 02:28:06;;;;;;;0.22;0.20;;;16.30;69.10;;;;;;5015285;28;20057;-77
2022/12/25 02:30:38;;;;;;;0.20;0.20;;;16.30;69.10;;;;;;5014421;28;20101;-77
2022/12/25 02:35:56;;;;;;;0.10;0.10;;;16.30;69.10;;;;;;5014226;28;20045;-77
2022/12/25 02:38:38;;;;;;;0.20;0.20;;;16.30;69.10;;;;;;5014318;28;20018;-77
2022/12/25 02:41:10;;;;;;;0.50;0.10;;;16.20;69.10;;;;;;5014065;28;20054;-77
2022/12/25 03:11:47;;;;;;;0.65;0.25;;;16.20;69.20;;;;;;5027571;28;20149;-76
2022/12/25 03:16:57;;;;;;;0.20;0.10;;;16.20;69.20;;;;;;5041778;28;20045;-76
2022/12/25 03:27:38;;;;;;;0.35;0.10;;;16.20;69.20;;;;;;5013268;28;20090;-76
2022/12/25 03:32:57;;;;;;;0.10;0.10;;;16.10;69.20;;;;;;5013339;28;20075;-77
2022/12/25 03:36:13;;;;;;;0.17;0.10;;;16.10;69.20;;;;;;4997827;28;20404;-77
2022/12/25 03:49:43;;;;;;;0.45;0.28;;;16.10;69.20;;;;;;5001811;28;20037;-77
2022/12/25 04:37:35;;;;;;;0.10;0.10;;;16.00;69.30;;;;;;5032844;28;20523;-77
2022/12/25 04:40:01;;;;;;;0.10;0.10;;;16.00;69.40;;;;;;5030772;28;20025;-77
2022/12/25 04:42:26;;;;;;;0.10;0.10;;;16.00;69.40;;;;;;5032911;28;20033;-77
2022/12/25 04:44:52;;;;;;;0.30;0.10;;;16.00;69.30;;;;;;5032502;28;20026;-77
2022/12/25 04:47:17;;;;;;;0.13;0.10;;;16.00;69.40;;;;;;5031507;28;20022;-77
2022/12/25 04:49:43;;;;;;;0.35;0.20;;;15.90;69.30;;;;;;5032850;28;20029;-77
2022/12/25 04:52:09;;;;;;;0.10;0.10;;;16.00;69.40;;;;;;5031533;28;20017;-77
2022/12/25 04:54:36;;;;;;;0.40;0.20;;;15.90;69.40;;;;;;5032783;28;20030;-76
2022/12/25 04:57:02;;;;;;;0.15;0.10;;;16.00;69.40;;;;;;5031282;28;20028;-76
2022/12/25 04:59:27;;;;;;;0.15;0.10;;;16.00;69.40;;;;;;5032404;28;20030;-77
2022/12/25 05:01:53;;;;;;;0.28;0.10;;;15.90;69.40;;;;;;5031245;28;20038;-76
2022/12/25 05:04:19;;;;;;;0.20;0.20;;;16.00;69.50;;;;;;5031314;28;20396;-77
2022/12/25 05:06:44;;;;;;;0.10;0.10;;;16.00;69.50;;;;;;5032648;28;20021;-77
2022/12/25 05:09:10;;;;;;;0.10;0.10;;;15.90;69.40;;;;;;5031256;28;20483;-77
2022/12/25 05:11:36;;;;;;;0.20;0.10;;;15.90;69.50;;;;;;5031433;28;20394;-77
2022/12/25 05:14:01;;;;;;;0.00;0.00;;;15.90;69.50;;;;;;5030875;28;20104;-77
2022/12/25 05:16:27;;;;;;;0.15;0.15;;;15.90;69.40;;;;;;5016480;28;20514;-76
2022/12/25 05:18:53;;;;;;;0.20;0.20;;;15.90;69.40;;;;;;5011485;28;20037;-76
2022/12/25 05:21:18;;;;;;;0.10;0.10;;;15.90;69.40;;;;;;5011401;28;20049;-76
2022/12/25 05:23:47;;;;;;;0.30;0.20;;;15.90;69.40;;;;;;5011528;28;20029;-76
2022/12/25 05:26:23;;;;;;;0.28;0.10;;;15.90;69.50;;;;;;5011256;28;20018;-77
2022/12/25 05:28:49;;;;;;;0.15;0.15;;;15.90;69.40;;;;;;5011203;28;20033;-77
2022/12/25 05:31:14;;;;;;;0.20;0.10;;;15.90;69.50;;;;;;5011381;28;20026;-76
2022/12/25 05:33:40;;;;;;;0.40;0.20;;;15.90;69.50;;;;;;5011320;28;20041;-77
2022/12/25 05:36:07;;;;;;;0.10;0.10;;;15.90;69.50;;;;;;5011147;28;20037;-76
2022/12/25 05:38:33;;;;;;;0.32;0.10;;;15.90;69.50;;;;;;5011313;28;20042;-76
2022/12/25 05:40:58;;;;;;;0.15;0.13;;;15.90;69.50;;;;;;5011091;28;20026;-77
2022/12/25 05:43:24;;;;;;;0.10;0.10;;;15.90;69.60;;;;;;5011080;28;20030;-76
2022/12/25 05:45:50;;;;;;;0.13;0.13;;;15.90;69.60;;;;;;5011272;28;20026;-76
2022/12/25 05:48:16;;;;;;;0.22;0.20;;;15.90;69.50;;;;;;5012366;28;20022;-76
2022/12/25 05:50:42;;;;;;;0.10;0.08;;;15.90;69.50;;;;;;5011427;28;20194;-76
2022/12/25 05:53:08;;;;;;;1.08;0.15;;;15.90;69.60;;;;;;5016056;28;20034;-76
2022/12/25 05:55:34;;;;;;;0.20;0.10;;;15.90;69.60;;;;;;5014983;28;20025;-76
2022/12/25 05:58:00;;;;;;;0.20;0.10;;;15.80;69.50;;;;;;5015986;28;20037;-76
2022/12/25 06:00:26;;;;;;;0.10;0.10;;;15.80;69.50;;;;;;5016067;28;20065;-77
2022/12/25 06:02:51;;;;;;;0.10;0.00;;;15.80;69.60;;;;;;5014802;28;20069;-76
2022/12/25 06:05:17;;;;;;;0.10;0.10;;;15.90;69.60;;;;;;5014957;28;20014;-77
2022/12/25 06:07:43;;;;;;;0.38;0.10;;;15.80;69.60;;;;;;5023735;28;20029;-76
2022/12/25 06:10:08;;;;;;;0.10;0.10;;;15.80;69.50;;;;;;5034494;28;20025;-76
2022/12/25 06:12:34;;;;;;;0.65;0.30;;;15.80;69.50;;;;;;5034372;28;20116;-76
2022/12/25 06:15:00;;;;;;;0.43;0.17;;;15.80;69.60;;;;;;5030100;28;20014;-76
2022/12/25 06:17:25;;;;;;;0.15;0.10;;;15.80;69.50;;;;;;5014708;28;20038;-77
2022/12/25 06:19:52;;;;;;;0.70;0.10;;;15.80;69.50;;;;;;5015743;28;20017;-77
2022/12/25 06:22:18;;;;;;;0.35;0.20;;;15.80;69.50;;;;;;5014459;28;20034;-77
2022/12/25 06:24:43;;;;;;;0.25;0.20;;;15.80;69.50;;;;;;5015720;28;20022;-77
2022/12/25 06:27:09;;;;;;;0.00;0.00;;;15.80;69.60;;;;;;5015441;28;20033;-76
2022/12/25 06:29:34;;;;;;;0.00;0.00;;;15.80;69.60;;;;;;5015575;28;20041;-77
2022/12/25 06:32:00;;;;;;;0.20;0.20;;;15.80;69.60;;;;;;5015495;28;20523;-76
2022/12/25 06:34:26;;;;;;;0.52;0.20;;;15.80;69.60;;;;;;5014342;28;20510;-77
2022/12/25 06:36:52;;;;;;;0.10;0.10;;;15.80;69.60;;;;;;5014362;28;20034;-77
2022/12/25 06:39:17;;;;;;;0.05;0.05;;;15.80;69.60;;;;;;5014214;28;20050;-76
2022/12/25 06:41:43;;;;;;;0.10;0.10;;;15.80;69.60;;;;;;5014209;28;20488;-76
2022/12/25 06:44:09;;;;;;;0.10;0.03;;;15.80;69.60;;;;;;5015062;28;20026;-76
2022/12/25 06:46:34;;;;;;;0.28;0.10;;;15.80;69.60;;;;;;5014220;28;20026;-76
2022/12/25 06:49:00;;;;;;;0.20;0.10;;;15.80;69.70;;;;;;5015027;28;20061;-77
2022/12/25 06:51:30;;;;;;;0.03;0.00;;;15.80;69.70;;;;;;5014166;28;20102;-77
2022/12/25 06:53:56;;;;;;;0.28;0.13;;;15.80;69.70;;;;;;5014140;28;20076;-76
2022/12/25 06:56:26;;;;;;;0.10;0.10;;;15.80;69.60;;;;;;4997541;28;20022;-76
2022/12/25 06:58:53;;;;;;;0.10;0.10;;;15.70;69.60;;;;;;5013802;28;20116;-76
2022/12/25 07:01:24;;;;;;;0.13;0.10;;;15.70;69.60;;;;;;5013463;28;20065;-76
2022/12/25 07:03:52;;;;;;;0.50;0.10;;;15.70;69.60;;;;;;5013018;28;20076;-77
2022/12/25 07:06:17;;;;;;;1.25;0.10;;;15.80;69.70;;;;;;4997227;28;20030;-76
2022/12/25 07:08:43;;;;;;;0.20;0.20;;;15.70;69.70;;;;;;5031974;28;20048;-76
2022/12/25 07:11:09;;;;;;;0.10;0.00;;;15.70;69.70;;;;;;5033140;28;20053;-76
2022/12/25 07:13:34;;;;;;;0.85;0.17;;;15.70;69.60;;;;;;5034598;28;20063;-77
2022/12/25 07:16:01;;;;;;;0.10;0.10;;;15.70;69.70;;;;;;5021931;28;20026;-76
2022/12/25 07:18:26;;;;;;;0.00;0.00;;;15.70;69.70;;;;;;5013553;28;20026;-76
2022/12/25 07:20:54;;;;;;;0.30;0.30;;;15.70;69.70;;;;;;5013402;28;20116;-76
2022/12/25 07:23:22;;;;;;;0.15;0.10;;;15.70;69.80;;;;;;4997154;28;20464;-77
2022/12/25 07:25:58;;;;;;;0.05;0.05;;;15.70;69.80;;;;;;5014402;28;20033;-76
2022/12/25 07:28:24;;;;;;;0.20;0.10;;;15.70;70.70;;;;;;5014424;28;20022;-76
2022/12/25 07:30:49;;;;;;;0.30;0.10;;;15.70;69.70;;;;;;5014582;28;20021;-77
2022/12/25 07:33:15;;;;;;;0.10;0.10;;;15.70;69.70;;;;;;5014431;28;20100;-76
2022/12/25 07:35:41;;;;;;;0.05;0.00;;;15.70;69.70;;;;;;5013248;28;20042;-76
2022/12/25 07:38:06;;;;;;;0.10;0.10;;;15.70;69.80;;;;;;5014169;28;20034;-76
2022/12/25 07:40:32;;;;;;;0.00;0.00;;;15.70;69.80;;;;;;5013001;28;20030;-76
2022/12/25 07:42:58;;;;;;;0.20;0.10;;;15.70;69.80;;;;;;5012967;28;20041;-77
2022/12/25 07:45:23;;;;;;;0.20;0.10;;;15.70;69.80;;;;;;5014034;28;20021;-77
2022/12/25 07:47:49;;;;;;;0.10;0.10;;;15.60;69.70;;;;;;5013099;28;20018;-76
2022/12/25 07:50:15;;;;;;;0.20;0.10;;;15.60;69.80;;;;;;5014007;28;20492;-76
2022/12/25 07:52:41;;;;;;;0.17;0.10;;;15.60;69.80;;;;;;5012877;28;20029;-76
2022/12/25 07:55:07;;;;;;;0.30;0.08;;;15.60;69.80;;;;;;4996256;28;20026;-77
2022/12/25 07:57:34;;;;;;;0.17;0.15;;;15.60;69.80;;;;;;5013896;28;20022;-76
2022/12/25 08:00:00;;;;;;;0.32;0.15;;;15.60;69.80;;;;;;5012778;28;20022;-76
2022/12/25 08:02:27;;;;;;;0.10;0.10;;;15.60;69.80;;;;;;5013677;28;20075;-76
2022/12/25 08:04:54;;;;;;;0.10;0.10;;;15.60;70.80;;;;;;5012667;28;20018;-76
2022/12/25 08:07:19;;;;;;;0.30;0.10;;;15.60;69.80;;;;;;5018185;28;20053;-76
2022/12/25 08:09:45;;;;;;;0.15;0.10;;;15.60;69.90;;;;;;5032230;28;20060;-76
2022/12/25 08:12:11;;;;;;;0.17;0.08;;;15.60;69.80;;;;;;5033376;28;20500;-76
2022/12/25 08:14:36;;;;;;;0.00;0.00;;;15.60;69.90;;;;;;5031083;28;20025;-76
2022/12/25 08:17:02;;;;;;;0.10;0.10;;;15.60;69.90;;;;;;5013566;28;20057;-76
2022/12/25 08:19:28;;;;;;;0.10;0.10;;;15.60;69.90;;;;;;5013576;28;20028;-77
2022/12/25 08:21:54;;;;;;;0.20;0.10;;;15.60;69.90;;;;;;5013656;28;20025;-77
2022/12/25 08:24:19;;;;;;;0.10;0.10;;;15.60;69.90;;;;;;5011909;28;20029;-76
2022/12/25 08:26:45;;;;;;;0.10;0.10;;;15.60;69.90;;;;;;5012200;28;20025;-76
2022/12/25 08:29:11;;;;;;;0.08;0.08;;;15.60;69.90;;;;;;5012228;28;20080;-76
2022/12/25 08:31:36;;;;;;;0.10;0.10;;;15.60;69.90;;;;;;5012227;28;20030;-76
2022/12/25 08:34:02;;;;;;;0.00;0.00;;;15.60;69.90;;;;;;5013396;28;20033;-77
2022/12/25 08:36:28;;;;;;;0.00;0.00;;;15.60;69.90;;;;;;5012213;28;20156;-77
2022/12/25 08:38:54;;;;;;;0.10;0.08;;;15.60;69.90;;;;;;5012964;28;20022;-77
2022/12/25 08:41:19;;;;;;;0.10;0.10;;;15.60;69.90;;;;;;5011984;28;20076;-76
2022/12/25 08:43:45;;;;;;;0.10;0.10;;;15.60;69.90;;;;;;5012147;28;20536;-76
2022/12/25 08:46:10;;;;;;;0.30;0.10;;;15.60;69.90;;;;;;4995343;28;20121;-77
2022/12/25 08:48:36;;;;;;;0.10;0.10;;;15.60;69.90;;;;;;5013310;28;20025;-77
2022/12/25 08:51:02;;;;;;;0.00;0.00;;;15.60;69.90;;;;;;5011948;28;20025;-76
2022/12/25 08:53:27;;;;;;;0.00;0.00;;;15.50;69.90;;;;;;5012805;28;20022;-76
2022/12/25 08:55:58;;;;;;;0.30;0.10;;;15.50;69.90;;;;;;5011924;28;20022;-76
2022/12/25 08:58:24;;;;;;;0.28;0.10;;;15.50;69.90;;;;;;5011686;28;20053;-76
2022/12/25 09:00:49;;;;;;;0.32;0.10;;;15.50;69.90;;;;;;5011618;28;20133;-77
2022/12/25 09:03:15;;;;;;;0.00;0.00;;;15.50;69.90;;;;;;5011632;28;20126;-76
2022/12/25 09:05:40;;;;;;;0.10;0.10;;;15.50;69.90;;;;;;5011398;28;20018;-77
2022/12/25 09:08:06;;;;;;;0.00;0.00;;;15.50;70.00;;;;;;5023725;28;20029;-76
2022/12/25 09:10:35;;;;;;;0.35;0.30;;;15.50;70.00;;;;;;5031342;28;20030;-76
2022/12/25 09:13:01;;;;;;;0.00;0.00;;;15.50;70.00;;;;;;5031390;28;20078;-76
2022/12/25 09:15:26;;;;;;;0.25;0.10;;;15.50;70.00;;;;;;5024398;28;20434;-76
2022/12/25 09:17:52;;;;;;;0.20;0.17;;;15.50;70.00;;;;;;4995069;28;20567;-76
2022/12/25 09:20:18;;;;;;;0.52;0.10;;;15.50;70.00;;;;;;5012350;28;20029;-77
2022/12/25 09:22:43;;;;;;;0.10;0.10;;;15.50;70.00;;;;;;5012557;28;20026;-76
2022/12/25 09:25:09;;;;;;;0.10;0.05;;;15.50;70.00;;;;;;5011523;28;20036;-77
2022/12/25 09:27:35;;;;;;;0.00;0.00;;;15.50;70.10;;;;;;5010839;28;20101;-76
2022/12/25 09:30:00;;;;;;;0.10;0.00;;;15.50;70.10;;;;;;5011348;28;20018;-76
2022/12/25 09:32:26;;;;;;;0.05;0.05;;;15.50;70.00;;;;;;5012511;28;20030;-77
2022/12/25 09:34:51;;;;;;;0.10;0.10;;;15.50;70.00;;;;;;5011155;28;20018;-76
2022/12/25 09:37:17;;;;;;;0.10;0.10;;;15.50;70.00;;;;;;5011229;28;20037;-77
2022/12/25 09:39:43;;;;;;;0.00;0.00;;;15.50;70.00;;;;;;5012466;28;20033;-77
2022/12/25 09:42:19;;;;;;;0.10;0.10;;;15.50;70.10;;;;;;5012441;28;20030;-77
2022/12/25 09:44:50;;;;;;;0.08;0.08;;;15.40;70.00;;;;;;5011205;28;20033;-76
2022/12/25 09:47:19;;;;;;;0.10;0.10;;;15.50;70.10;;;;;;5011453;28;20022;-76
2022/12/25 09:49:55;;;;;;;0.10;0.10;;;15.50;70.10;;;;;;5010928;28;20018;-77
2022/12/25 09:52:28;;;;;;;0.00;0.00;;;15.50;70.10;;;;;;5011027;28;20057;-77
2022/12/25 09:55:23;;;;;;;0.40;0.00;;;15.50;70.10;;;;;;5011184;28;20014;-76
2022/12/25 09:57:55;;;;;;;0.00;0.00;;;15.40;70.10;;;;;;5012403;28;20058;-76
2022/12/25 10:00:23;;;;;;;0.05;0.00;;;15.40;70.00;;;;;;5010839;28;20045;-77
2022/12/25 10:03:13;;;;;;;0.20;0.10;;;15.40;70.10;;;;;;5010980;28;20038;-76
2022/12/25 10:05:38;;;;;;;0.00;0.00;;;15.40;71.10;;;;;;5011972;28;20030;-76
2022/12/25 10:08:19;;;;;;;0.00;0.00;;;15.40;70.10;;;;;;5024341;28;20025;-77
2022/12/25 10:10:47;;;;;;;0.00;0.00;;;15.40;70.10;;;;;;5031879;28;20522;-77
2022/12/25 10:13:25;;;;;;;0.00;0.00;;;15.40;70.10;;;;;;5030654;28;20025;-77
2022/12/25 10:16:00;;;;;;;0.10;0.10;;;15.40;70.10;;;;;;5020809;28;20029;-76
2022/12/25 10:18:33;;;;;;;0.10;0.10;;;15.40;70.20;;;;;;5011949;28;20034;-77
2022/12/25 10:21:00;;;;;;;0.10;0.10;;;15.40;70.10;;;;;;5011011;28;20068;-76
2022/12/25 10:23:35;;;;;;;0.13;0.03;;;15.40;70.10;;;;;;5010798;28;20026;-76
2022/12/25 10:26:00;;;;;;;0.22;0.10;;;15.40;70.10;;;;;;5010958;28;20029;-76
2022/12/25 10:28:33;;;;;;;0.00;0.00;;;15.40;70.10;;;;;;5010914;28;20029;-77
2022/12/25 10:31:16;;;;;;;0.00;0.00;;;15.40;70.10;;;;;;5010835;28;20024;-76
2022/12/25 10:33:42;;;;;;;0.10;0.10;;;15.40;70.10;;;;;;5010732;28;20026;-76
2022/12/25 10:36:08;;;;;;;0.00;0.00;;;15.40;70.10;;;;;;5010874;28;20570;-76
2022/12/25 10:38:35;;;;;;;0.03;0.03;;;15.40;70.10;;;;;;5011788;28;20518;-77
2022/12/25 10:41:18;;;;;;;0.70;0.15;;;15.40;70.20;;;;;;5014247;28;20045;-76
2022/12/25 10:43:54;;;;;;;0.00;0.00;;;15.40;70.10;;;;;;5014470;28;20022;-76
2022/12/25 10:46:20;;;;;;;0.45;0.20;;;15.40;70.20;;;;;;4997820;28;20392;-76
2022/12/25 10:48:57;;;;;;;0.13;0.05;;;15.40;70.10;;;;;;5013970;28;20097;-77
2022/12/25 10:51:33;;;;;;;0.28;0.10;;;15.40;70.20;;;;;;5014182;28;20014;-76
2022/12/25 10:54:03;;;;;;;0.15;0.10;;;15.40;70.20;;;;;;5015745;28;20041;-76
2022/12/25 10:56:29;;;;;;;0.03;0.03;;;15.30;70.10;;;;;;5014195;28;20026;-76
2022/12/25 10:59:08;;;;;;;0.10;0.10;;;15.30;70.10;;;;;;5014033;28;20036;-76
2022/12/25 11:01:34;;;;;;;0.20;0.20;;;15.40;70.20;;;;;;5013737;28;20124;-76
2022/12/25 11:04:00;;;;;;;0.10;0.10;;;15.40;70.20;;;;;;5014025;28;20101;-77
2022/12/25 11:06:27;;;;;;;0.17;0.15;;;15.30;70.10;;;;;;5013984;28;20030;-77
2022/12/25 11:08:57;;;;;;;0.08;0.08;;;15.30;70.10;;;;;;5032383;28;20029;-76
2022/12/25 11:11:23;;;;;;;0.10;0.10;;;15.40;70.30;;;;;;5033794;28;20021;-77
2022/12/25 11:13:53;;;;;;;0.10;0.10;;;15.30;70.20;;;;;;5033652;28;20519;-76
2022/12/25 11:16:25;;;;;;;0.30;0.10;;;15.30;70.20;;;;;;5018300;28;20068;-76
2022/12/25 11:18:52;;;;;;;0.10;0.10;;;15.30;70.20;;;;;;5014889;28;20034;-77
2022/12/25 11:21:31;;;;;;;0.00;0.00;;;15.30;70.10;;;;;;5013655;28;20053;-76
2022/12/25 11:24:00;;;;;;;0.20;0.10;;;15.30;70.20;;;;;;5013770;28;20038;-76
2022/12/25 11:26:27;;;;;;;0.10;0.10;;;15.30;70.20;;;;;;5013334;28;20030;-76
2022/12/25 11:28:54;;;;;;;0.00;0.00;;;15.30;70.10;;;;;;5013554;28;20022;-76
2022/12/25 11:31:22;;;;;;;0.00;0.00;;;15.30;70.20;;;;;;5013224;28;20064;-77
2022/12/25 11:33:47;;;;;;;0.00;0.00;;;15.30;70.20;;;;;;5014541;28;20045;-77
2022/12/25 11:36:25;;;;;;;0.00;0.00;;;15.30;70.20;;;;;;5014577;28;20030;-76
2022/12/25 11:38:51;;;;;;;0.00;0.00;;;15.30;70.20;;;;;;5013315;28;20049;-77
2022/12/25 11:41:19;;;;;;;0.60;0.10;;;15.30;70.20;;;;;;5014537;28;20061;-77
2022/12/25 11:43:52;;;;;;;0.10;0.10;;;15.30;70.20;;;;;;4997069;28;20025;-76
2022/12/25 11:46:36;;;;;;;0.05;0.05;;;15.30;71.20;;;;;;5012912;28;20080;-76
2022/12/25 11:49:05;;;;;;;0.00;0.00;;;15.30;70.20;;;;;;5013955;28;20049;-76
2022/12/25 11:51:37;;;;;;;0.10;0.10;;;15.30;70.30;;;;;;5014104;28;20026;-77
2022/12/25 11:54:23;;;;;;;0.00;0.00;;;15.30;70.20;;;;;;5013171;28;20026;-76
2022/12/25 11:56:49;;;;;;;0.08;0.08;;;15.30;70.10;;;;;;5014144;28;20057;-76
2022/12/25 11:59:26;;;;;;;0.10;0.10;;;15.30;70.10;;;;;;5013114;28;20058;-77
2022/12/25 12:02:27;;;;;;;0.05;0.05;;;15.30;70.10;;;;;;5012478;28;20543;-76
2022/12/25 12:05:06;;;;;;;0.10;0.10;;;15.30;70.10;;;;;;4992179;28;20116;-77
2022/12/25 12:07:32;;;;;;;0.10;0.10;;;15.30;70.20;;;;;;4968516;28;20041;-76
2022/12/25 12:10:24;;;;;;;0.10;0.10;;;15.30;70.20;;;;;;4995659;28;20030;-77
2022/12/25 12:12:55;;;;;;;0.90;0.13;;;15.30;70.20;;;;;;5008135;28;20033;-76
2022/12/25 12:15:29;;;;;;;0.10;0.10;;;15.30;70.10;;;;;;4994932;28;20033;-76
2022/12/25 12:18:06;;;;;;;0.00;0.00;;;15.30;70.20;;;;;;4980014;28;20161;-76
2022/12/25 12:20:33;;;;;;;0.00;0.00;;;15.30;70.20;;;;;;5011536;28;20447;-76
2022/12/25 12:22:59;;;;;;;0.00;0.00;;;15.30;70.10;;;;;;4979070;28;20045;-77
2022/12/25 12:25:25;;;;;;;0.00;0.00;;;15.30;70.10;;;;;;4995294;28;20022;-76
2022/12/25 12:27:55;;;;;;;0.10;0.10;;;15.30;70.10;;;;;;4978962;28;20415;-77
2022/12/25 12:30:24;;;;;;;0.05;0.05;;;15.30;70.20;;;;;;4978968;28;20026;-76
2022/12/25 12:32:51;;;;;;;0.10;0.10;;;15.20;70.10;;;;;;4979292;28;20032;-76
2022/12/25 12:35:23;;;;;;;0.00;0.00;;;15.20;70.10;;;;;;4995247;28;20038;-77
2022/12/25 12:38:19;;;;;;;0.00;0.00;;;15.30;70.20;;;;;;4979283;28;20053;-76
2022/12/25 12:40:55;;;;;;;0.10;0.10;;;15.20;70.10;;;;;;4990823;28;20117;-76
2022/12/25 12:43:52;;;;;;;0.10;0.10;;;15.20;70.20;;;;;;5011842;28;20074;-76
2022/12/25 12:46:23;;;;;;;0.13;0.13;;;15.30;70.20;;;;;;5012198;28;20030;-76
2022/12/25 12:48:51;;;;;;;0.10;0.10;;;15.30;70.30;;;;;;5012203;28;20064;-76
2022/12/25 12:51:31;;;;;;;0.05;0.00;;;15.20;70.30;;;;;;5012133;28;20026;-77
2022/12/25 12:54:23;;;;;;;0.17;0.00;;;15.20;70.30;;;;;;5012031;28;20079;-76
2022/12/25 12:57:02;;;;;;;0.10;0.10;;;15.30;70.20;;;;;;5044130;28;20045;-77
2022/12/25 12:59:38;;;;;;;0.10;0.03;;;15.30;70.30;;;;;;5012915;28;20037;-76
2022/12/25 13:02:25;;;;;;;0.50;0.10;;;15.20;70.30;;;;;;5011166;28;20084;-77
2022/12/25 13:05:21;;;;;;;0.00;0.00;;;15.30;70.30;;;;;;5013057;28;20034;-76
2022/12/25 13:08:03;;;;;;;0.00;0.00;;;15.20;70.20;;;;;;5020079;28;20072;-77
2022/12/25 13:10:29;;;;;;;0.00;0.00;;;15.20;70.20;;;;;;5014292;28;20029;-76
2022/12/25 13:12:59;;;;;;;0.10;0.10;;;15.20;70.30;;;;;;5030267;28;20789;-77
2022/12/25 13:15:27;;;;;;;0.00;0.00;;;15.20;70.20;;;;;;5006548;28;20065;-77
2022/12/25 13:17:54;;;;;;;0.10;0.10;;;15.20;70.30;;;;;;5010722;28;20117;-77
2022/12/25 13:20:23;;;;;;;0.03;0.03;;;15.20;70.30;;;;;;5010704;28;20025;-76
2022/12/25 13:22:49;;;;;;;0.00;0.00;;;15.20;70.30;;;;;;5010305;28;20034;-76
2022/12/25 13:25:20;;;;;;;0.10;0.10;;;15.20;70.30;;;;;;5027251;28;20029;-76
2022/12/25 13:27:52;;;;;;;0.10;0.10;;;15.20;70.30;;;;;;5010426;28;20030;-77
2022/12/25 13:30:19;;;;;;;0.00;0.00;;;15.20;70.30;;;;;;5009759;28;20046;-76
2022/12/25 13:32:44;;;;;;;0.17;0.10;;;15.20;70.30;;;;;;5026732;28;20030;-76
2022/12/25 13:35:16;;;;;;;0.00;0.00;;;15.20;70.30;;;;;;5027138;28;20511;-76
2022/12/25 13:37:42;;;;;;;0.10;0.10;;;15.20;70.30;;;;;;5026598;28;20077;-76
2022/12/25 13:40:24;;;;;;;0.00;0.00;;;15.20;70.30;;;;;;5026958;28;20029;-76
2022/12/25 13:42:49;;;;;;;0.10;0.10;;;15.20;70.30;;;;;;5026660;28;20050;-76
2022/12/25 13:45:23;;;;;;;0.00;0.00;;;15.20;70.40;;;;;;5023425;28;20054;-76
2022/12/25 13:47:50;;;;;;;0.00;0.00;;;15.20;70.30;;;;;;5011485;28;20052;-76
2022/12/25 13:50:21;;;;;;;0.03;0.03;;;15.20;70.40;;;;;;5012588;28;20052;-76
2022/12/25 13:52:46;;;;;;;0.10;0.10;;;15.20;70.30;;;;;;5011323;28;20033;-76
2022/12/25 13:55:14;;;;;;;0.00;0.00;;;15.20;70.50;;;;;;5011448;28;20026;-76
2022/12/25 13:57:56;;;;;;;0.10;0.10;;;15.20;70.50;;;;;;5010919;28;20029;-76
2022/12/25 14:00:35;;;;;;;0.20;0.05;;;15.20;70.50;;;;;;5011147;28;20026;-77
2022/12/25 14:03:00;;;;;;;0.10;0.10;;;15.10;70.50;;;;;;5012307;28;20038;-76
2022/12/25 14:05:28;;;;;;;0.10;0.00;;;15.20;70.50;;;;;;5011074;28;20369;-77
2022/12/25 14:07:54;;;;;;;0.03;0.03;;;15.20;70.50;;;;;;5021602;28;20033;-76
2022/12/25 14:10:34;;;;;;;0.00;0.00;;;15.20;70.50;;;;;;5030821;28;20454;-76
2022/12/25 14:13:03;;;;;;;0.00;0.00;;;15.10;70.50;;;;;;5032658;28;20029;-77
2022/12/25 14:15:30;;;;;;;0.10;0.10;;;15.10;70.50;;;;;;5026674;28;20025;-76
2022/12/25 14:17:55;;;;;;;0.10;0.10;;;15.20;70.60;;;;;;5014895;28;20029;-76
2022/12/25 14:20:27;;;;;;;0.25;0.10;;;15.20;70.60;;;;;;5014949;28;20051;-76
2022/12/25 14:22:53;;;;;;;0.10;0.10;;;15.10;70.50;;;;;;5014693;28;20400;-76
2022/12/25 14:25:20;;;;;;;0.00;0.00;;;15.20;70.50;;;;;;5014600;28;20020;-77
2022/12/25 14:27:51;;;;;;;0.10;0.10;;;15.20;70.50;;;;;;5014821;28;20843;-76
2022/12/25 14:30:17;;;;;;;0.10;0.10;;;15.10;70.40;;;;;;5014648;28;20030;-76
2022/12/25 14:32:44;;;;;;;0.45;0.08;;;15.10;70.50;;;;;;5014479;28;20021;-76
2022/12/25 14:35:10;;;;;;;0.10;0.00;;;15.10;70.50;;;;;;5015909;28;20076;-77
2022/12/25 14:37:37;;;;;;;0.10;0.10;;;15.20;70.50;;;;;;5014443;28;20026;-77
2022/12/25 14:40:17;;;;;;;0.00;0.00;;;15.20;70.60;;;;;;5014399;28;20026;-77